sensor_id;sensor_type;location;lat;lon;timestamp;P1;durP1;ratioP1;P2;durP2;ratioP2
54406;SDS011;40313;50.308;30.374;2023-03-03T00:02:22;39.20;;;24.30;;
54406;SDS011;40313;50.308;30.374;2023-03-03T00:07:15;49.22;;;23.48;;
54406;SDS011;40313;50.308;30.374;2023-03-03T00:09:47;38.92;;;22.83;;
54406;SDS011;40313;50.308;30.374;2023-03-03T00:12:19;39.22;;;23.88;;
54406;SDS011;40313;50.308;30.374;2023-03-03T00:14:48;56.63;;;29.45;;
54406;SDS011;40313;50.308;30.374;2023-03-03T00:17:17;54.05;;;30.38;;
54406;SDS011;40313;50.308;30.374;2023-03-03T00:19:47;52.42;;;29.98;;
54406;SDS011;40313;50.308;30.374;2023-03-03T00:22:15;59.58;;;29.67;;
54406;SDS011;40313;50.308;30.374;2023-03-03T00:24:47;36.33;;;22.73;;
54406;SDS011;40313;50.308;30.374;2023-03-03T00:27:15;41.28;;;22.20;;
54406;SDS011;40313;50.308;30.374;2023-03-03T00:29:48;34.38;;;21.55;;
54406;SDS011;40313;50.308;30.374;2023-03-03T00:32:22;42.33;;;21.90;;
54406;SDS011;40313;50.308;30.374;2023-03-03T00:34:50;36.92;;;21.75;;
54406;SDS011;40313;50.308;30.374;2023-03-03T00:37:21;38.47;;;22.02;;
54406;SDS011;40313;50.308;30.374;2023-03-03T00:39:52;38.88;;;21.52;;
54406;SDS011;40313;50.308;30.374;2023-03-03T00:42:20;31.00;;;20.95;;
54406;SDS011;40313;50.308;30.374;2023-03-03T00:44:47;32.10;;;18.45;;
54406;SDS011;40313;50.308;30.374;2023-03-03T00:49:55;28.55;;;18.58;;
54406;SDS011;40313;50.308;30.374;2023-03-03T00:52:43;27.60;;;17.55;;
54406;SDS011;40313;50.308;30.374;2023-03-03T00:55:16;30.57;;;20.20;;
54406;SDS011;40313;50.308;30.374;2023-03-03T00:57:44;28.38;;;17.10;;
54406;SDS011;40313;50.308;30.374;2023-03-03T01:00:11;29.95;;;18.02;;
54406;SDS011;40313;50.308;30.374;2023-03-03T01:02:38;30.75;;;17.35;;
54406;SDS011;40313;50.308;30.374;2023-03-03T01:05:05;30.92;;;18.60;;
54406;SDS011;40313;50.308;30.374;2023-03-03T01:07:32;31.97;;;19.03;;
54406;SDS011;40313;50.308;30.374;2023-03-03T01:09:58;33.35;;;19.60;;
54406;SDS011;40313;50.308;30.374;2023-03-03T01:12:25;32.23;;;19.27;;
54406;SDS011;40313;50.308;30.374;2023-03-03T01:14:53;42.80;;;21.77;;
54406;SDS011;40313;50.308;30.374;2023-03-03T01:17:20;36.13;;;20.40;;
54406;SDS011;40313;50.308;30.374;2023-03-03T01:19:46;29.67;;;19.93;;
54406;SDS011;40313;50.308;30.374;2023-03-03T01:22:13;25.52;;;16.33;;
54406;SDS011;40313;50.308;30.374;2023-03-03T01:24:39;27.48;;;19.00;;
54406;SDS011;40313;50.308;30.374;2023-03-03T01:27:06;26.83;;;16.73;;
54406;SDS011;40313;50.308;30.374;2023-03-03T01:29:32;23.17;;;16.47;;
54406;SDS011;40313;50.308;30.374;2023-03-03T01:32:00;22.55;;;14.93;;
54406;SDS011;40313;50.308;30.374;2023-03-03T01:34:27;23.75;;;15.82;;
54406;SDS011;40313;50.308;30.374;2023-03-03T01:36:53;24.42;;;14.90;;
54406;SDS011;40313;50.308;30.374;2023-03-03T01:39:20;20.70;;;14.03;;
54406;SDS011;40313;50.308;30.374;2023-03-03T01:41:46;22.10;;;15.47;;
54406;SDS011;40313;50.308;30.374;2023-03-03T01:44:13;29.63;;;16.67;;
54406;SDS011;40313;50.308;30.374;2023-03-03T01:46:43;29.35;;;17.00;;
54406;SDS011;40313;50.308;30.374;2023-03-03T01:49:16;28.38;;;17.17;;
54406;SDS011;40313;50.308;30.374;2023-03-03T01:51:48;28.77;;;15.67;;
54406;SDS011;40313;50.308;30.374;2023-03-03T01:54:19;22.48;;;14.35;;
54406;SDS011;40313;50.308;30.374;2023-03-03T01:56:50;20.08;;;14.23;;
54406;SDS011;40313;50.308;30.374;2023-03-03T01:59:20;22.55;;;13.25;;
54406;SDS011;40313;50.308;30.374;2023-03-03T02:01:51;18.38;;;13.15;;
54406;SDS011;40313;50.308;30.374;2023-03-03T02:04:19;17.02;;;12.32;;
54406;SDS011;40313;50.308;30.374;2023-03-03T02:06:47;18.70;;;12.95;;
54406;SDS011;40313;50.308;30.374;2023-03-03T02:09:19;16.15;;;12.98;;
54406;SDS011;40313;50.308;30.374;2023-03-03T02:11:51;16.50;;;12.75;;
54406;SDS011;40313;50.308;30.374;2023-03-03T02:14:23;14.77;;;12.18;;
54406;SDS011;40313;50.308;30.374;2023-03-03T02:16:50;16.30;;;13.30;;
54406;SDS011;40313;50.308;30.374;2023-03-03T02:19:18;13.80;;;11.57;;
54406;SDS011;40313;50.308;30.374;2023-03-03T02:21:52;14.82;;;12.65;;
54406;SDS011;40313;50.308;30.374;2023-03-03T02:24:21;17.10;;;13.33;;
54406;SDS011;40313;50.308;30.374;2023-03-03T02:26:53;26.13;;;12.68;;
54406;SDS011;40313;50.308;30.374;2023-03-03T02:29:20;19.42;;;12.93;;
54406;SDS011;40313;50.308;30.374;2023-03-03T02:31:47;21.55;;;13.20;;
54406;SDS011;40313;50.308;30.374;2023-03-03T02:34:13;21.70;;;13.93;;
54406;SDS011;40313;50.308;30.374;2023-03-03T02:36:40;21.08;;;14.73;;
54406;SDS011;40313;50.308;30.374;2023-03-03T02:39:08;15.60;;;13.02;;
54406;SDS011;40313;50.308;30.374;2023-03-03T02:41:40;21.20;;;14.27;;
54406;SDS011;40313;50.308;30.374;2023-03-03T02:44:11;16.85;;;14.50;;
54406;SDS011;40313;50.308;30.374;2023-03-03T02:46:40;17.92;;;14.07;;
54406;SDS011;40313;50.308;30.374;2023-03-03T02:49:10;18.65;;;13.73;;
54406;SDS011;40313;50.308;30.374;2023-03-03T02:51:38;24.35;;;15.13;;
54406;SDS011;40313;50.308;30.374;2023-03-03T02:54:05;23.83;;;15.60;;
54406;SDS011;40313;50.308;30.374;2023-03-03T02:56:32;21.52;;;15.07;;
54406;SDS011;40313;50.308;30.374;2023-03-03T02:58:59;25.77;;;14.93;;
54406;SDS011;40313;50.308;30.374;2023-03-03T03:01:27;26.30;;;15.10;;
54406;SDS011;40313;50.308;30.374;2023-03-03T03:03:55;25.42;;;15.00;;
54406;SDS011;40313;50.308;30.374;2023-03-03T03:06:22;23.95;;;15.18;;
54406;SDS011;40313;50.308;30.374;2023-03-03T03:08:49;26.05;;;18.35;;
54406;SDS011;40313;50.308;30.374;2023-03-03T03:11:15;35.53;;;18.20;;
54406;SDS011;40313;50.308;30.374;2023-03-03T03:13:41;28.30;;;16.10;;
54406;SDS011;40313;50.308;30.374;2023-03-03T03:16:09;22.50;;;14.75;;
54406;SDS011;40313;50.308;30.374;2023-03-03T03:18:36;19.77;;;14.77;;
54406;SDS011;40313;50.308;30.374;2023-03-03T03:21:07;18.90;;;14.70;;
54406;SDS011;40313;50.308;30.374;2023-03-03T03:23:34;34.63;;;15.95;;
54406;SDS011;40313;50.308;30.374;2023-03-03T03:26:01;25.48;;;17.48;;
54406;SDS011;40313;50.308;30.374;2023-03-03T03:28:28;28.92;;;17.05;;
54406;SDS011;40313;50.308;30.374;2023-03-03T03:30:54;23.95;;;17.00;;
54406;SDS011;40313;50.308;30.374;2023-03-03T03:33:21;26.05;;;16.70;;
54406;SDS011;40313;50.308;30.374;2023-03-03T03:35:49;30.27;;;17.67;;
54406;SDS011;40313;50.308;30.374;2023-03-03T03:38:16;26.85;;;17.50;;
54406;SDS011;40313;50.308;30.374;2023-03-03T03:40:42;27.20;;;16.23;;
54406;SDS011;40313;50.308;30.374;2023-03-03T03:43:09;31.40;;;18.38;;
54406;SDS011;40313;50.308;30.374;2023-03-03T03:45:35;20.23;;;16.23;;
54406;SDS011;40313;50.308;30.374;2023-03-03T03:48:02;23.38;;;15.27;;
54406;SDS011;40313;50.308;30.374;2023-03-03T03:50:29;26.70;;;17.50;;
54406;SDS011;40313;50.308;30.374;2023-03-03T03:52:57;20.27;;;14.82;;
54406;SDS011;40313;50.308;30.374;2023-03-03T03:55:24;22.17;;;15.55;;
54406;SDS011;40313;50.308;30.374;2023-03-03T03:57:50;18.05;;;13.65;;
54406;SDS011;40313;50.308;30.374;2023-03-03T04:00:17;20.15;;;12.85;;
54406;SDS011;40313;50.308;30.374;2023-03-03T04:27:15;20.60;;;15.90;;
54406;SDS011;40313;50.308;30.374;2023-03-03T04:41:54;20.70;;;13.65;;
54406;SDS011;40313;50.308;30.374;2023-03-03T04:49:14;19.77;;;14.80;;
54406;SDS011;40313;50.308;30.374;2023-03-03T04:51:41;24.55;;;15.80;;
54406;SDS011;40313;50.308;30.374;2023-03-03T04:54:08;21.05;;;14.45;;
54406;SDS011;40313;50.308;30.374;2023-03-03T04:56:34;24.65;;;14.88;;
54406;SDS011;40313;50.308;30.374;2023-03-03T04:59:01;20.27;;;14.23;;
54406;SDS011;40313;50.308;30.374;2023-03-03T05:01:28;30.03;;;14.70;;
54406;SDS011;40313;50.308;30.374;2023-03-03T05:03:55;25.13;;;14.87;;
54406;SDS011;40313;50.308;30.374;2023-03-03T05:06:21;15.30;;;13.30;;
54406;SDS011;40313;50.308;30.374;2023-03-03T05:08:48;23.10;;;14.87;;
54406;SDS011;40313;50.308;30.374;2023-03-03T05:11:15;23.10;;;13.83;;
54406;SDS011;40313;50.308;30.374;2023-03-03T05:13:41;17.83;;;12.90;;
54406;SDS011;40313;50.308;30.374;2023-03-03T05:16:08;16.05;;;13.30;;
54406;SDS011;40313;50.308;30.374;2023-03-03T05:18:36;20.83;;;13.50;;
54406;SDS011;40313;50.308;30.374;2023-03-03T05:21:04;26.10;;;14.17;;
54406;SDS011;40313;50.308;30.374;2023-03-03T05:23:31;19.97;;;13.73;;
54406;SDS011;40313;50.308;30.374;2023-03-03T05:25:57;13.80;;;12.55;;
54406;SDS011;40313;50.308;30.374;2023-03-03T05:28:24;17.40;;;12.95;;
54406;SDS011;40313;50.308;30.374;2023-03-03T05:30:50;18.67;;;13.97;;
54406;SDS011;40313;50.308;30.374;2023-03-03T05:33:17;21.70;;;13.27;;
54406;SDS011;40313;50.308;30.374;2023-03-03T05:35:45;17.20;;;13.03;;
54406;SDS011;40313;50.308;30.374;2023-03-03T05:38:11;20.07;;;13.33;;
54406;SDS011;40313;50.308;30.374;2023-03-03T05:40:38;12.90;;;11.57;;
54406;SDS011;40313;50.308;30.374;2023-03-03T05:43:04;16.00;;;13.50;;
54406;SDS011;40313;50.308;30.374;2023-03-03T05:45:31;15.95;;;12.85;;
54406;SDS011;40313;50.308;30.374;2023-03-03T05:47:59;17.80;;;14.60;;
54406;SDS011;40313;50.308;30.374;2023-03-03T05:50:27;21.93;;;13.53;;
54406;SDS011;40313;50.308;30.374;2023-03-03T05:52:55;17.83;;;13.33;;
54406;SDS011;40313;50.308;30.374;2023-03-03T05:55:21;16.83;;;12.83;;
54406;SDS011;40313;50.308;30.374;2023-03-03T05:57:48;15.98;;;12.73;;
54406;SDS011;40313;50.308;30.374;2023-03-03T06:00:15;15.00;;;13.40;;
54406;SDS011;40313;50.308;30.374;2023-03-03T06:02:42;21.58;;;13.52;;
54406;SDS011;40313;50.308;30.374;2023-03-03T06:05:09;25.38;;;13.05;;
54406;SDS011;40313;50.308;30.374;2023-03-03T06:07:35;24.60;;;13.40;;
54406;SDS011;40313;50.308;30.374;2023-03-03T06:10:04;17.95;;;13.35;;
54406;SDS011;40313;50.308;30.374;2023-03-03T06:12:31;17.75;;;13.55;;
54406;SDS011;40313;50.308;30.374;2023-03-03T06:14:58;18.02;;;13.38;;
54406;SDS011;40313;50.308;30.374;2023-03-03T06:17:24;16.20;;;13.40;;
54406;SDS011;40313;50.308;30.374;2023-03-03T06:19:51;17.48;;;12.88;;
54406;SDS011;40313;50.308;30.374;2023-03-03T06:22:17;18.83;;;13.50;;
54406;SDS011;40313;50.308;30.374;2023-03-03T06:24:45;13.75;;;12.30;;
54406;SDS011;40313;50.308;30.374;2023-03-03T06:27:12;25.65;;;12.10;;
54406;SDS011;40313;50.308;30.374;2023-03-03T06:29:39;13.75;;;12.35;;
54406;SDS011;40313;50.308;30.374;2023-03-03T06:32:05;12.93;;;11.80;;
54406;SDS011;40313;50.308;30.374;2023-03-03T06:34:32;13.40;;;11.60;;
54406;SDS011;40313;50.308;30.374;2023-03-03T06:36:58;14.03;;;11.90;;
54406;SDS011;40313;50.308;30.374;2023-03-03T06:39:25;11.63;;;10.70;;
54406;SDS011;40313;50.308;30.374;2023-03-03T06:41:52;17.55;;;13.45;;
54406;SDS011;40313;50.308;30.374;2023-03-03T06:44:20;19.15;;;12.18;;
54406;SDS011;40313;50.308;30.374;2023-03-03T06:46:46;16.80;;;12.57;;
54406;SDS011;40313;50.308;30.374;2023-03-03T06:49:13;21.85;;;12.30;;
54406;SDS011;40313;50.308;30.374;2023-03-03T06:51:39;23.25;;;13.07;;
54406;SDS011;40313;50.308;30.374;2023-03-03T06:54:09;14.43;;;10.27;;
54406;SDS011;40313;50.308;30.374;2023-03-03T06:56:37;21.10;;;12.35;;
54406;SDS011;40313;50.308;30.374;2023-03-03T06:59:05;11.90;;;10.75;;
54406;SDS011;40313;50.308;30.374;2023-03-03T07:01:39;20.98;;;11.55;;
54406;SDS011;40313;50.308;30.374;2023-03-03T07:04:10;19.52;;;12.32;;
54406;SDS011;40313;50.308;30.374;2023-03-03T07:06:42;12.10;;;10.80;;
54406;SDS011;40313;50.308;30.374;2023-03-03T07:09:10;20.30;;;12.48;;
54406;SDS011;40313;50.308;30.374;2023-03-03T07:14:13;15.00;;;11.50;;
54406;SDS011;40313;50.308;30.374;2023-03-03T07:21:42;18.60;;;11.40;;
54406;SDS011;40313;50.308;30.374;2023-03-03T07:24:13;12.60;;;11.30;;
54406;SDS011;40313;50.308;30.374;2023-03-03T07:26:47;11.70;;;10.65;;
54406;SDS011;40313;50.308;30.374;2023-03-03T07:29:16;23.50;;;10.65;;
54406;SDS011;40313;50.308;30.374;2023-03-03T07:31:48;19.55;;;11.13;;
54406;SDS011;40313;50.308;30.374;2023-03-03T07:34:17;12.65;;;11.10;;
54406;SDS011;40313;50.308;30.374;2023-03-03T07:36:46;13.23;;;12.23;;
54406;SDS011;40313;50.308;30.374;2023-03-03T07:39:25;13.52;;;11.02;;
54406;SDS011;40313;50.308;30.374;2023-03-03T07:41:58;18.50;;;11.52;;
54406;SDS011;40313;50.308;30.374;2023-03-03T07:44:35;21.88;;;12.85;;
54406;SDS011;40313;50.308;30.374;2023-03-03T07:47:11;22.23;;;12.25;;
54406;SDS011;40313;50.308;30.374;2023-03-03T07:49:43;14.50;;;11.50;;
54406;SDS011;40313;50.308;30.374;2023-03-03T07:52:17;13.73;;;12.48;;
54406;SDS011;40313;50.308;30.374;2023-03-03T07:54:56;20.50;;;11.88;;
54406;SDS011;40313;50.308;30.374;2023-03-03T07:57:26;12.85;;;11.63;;
54406;SDS011;40313;50.308;30.374;2023-03-03T07:59:58;17.35;;;12.10;;
54406;SDS011;40313;50.308;30.374;2023-03-03T08:02:38;13.13;;;11.77;;
54406;SDS011;40313;50.308;30.374;2023-03-03T08:05:20;16.08;;;11.45;;
54406;SDS011;40313;50.308;30.374;2023-03-03T08:07:53;23.45;;;12.02;;
54406;SDS011;40313;50.308;30.374;2023-03-03T08:10:28;17.48;;;12.18;;
54406;SDS011;40313;50.308;30.374;2023-03-03T08:13:01;15.23;;;11.07;;
54406;SDS011;40313;50.308;30.374;2023-03-03T08:15:40;22.80;;;13.52;;
54406;SDS011;40313;50.308;30.374;2023-03-03T08:18:14;22.55;;;13.85;;
54406;SDS011;40313;50.308;30.374;2023-03-03T08:20:47;16.63;;;13.15;;
54406;SDS011;40313;50.308;30.374;2023-03-03T08:23:15;29.23;;;16.42;;
54406;SDS011;40313;50.308;30.374;2023-03-03T08:25:43;16.48;;;13.85;;
54406;SDS011;40313;50.308;30.374;2023-03-03T08:28:10;14.77;;;12.38;;
54406;SDS011;40313;50.308;30.374;2023-03-03T08:30:38;18.13;;;13.50;;
54406;SDS011;40313;50.308;30.374;2023-03-03T08:33:04;16.27;;;13.13;;
54406;SDS011;40313;50.308;30.374;2023-03-03T08:40:26;25.10;;;14.30;;
54406;SDS011;40313;50.308;30.374;2023-03-03T08:42:52;25.10;;;14.80;;
54406;SDS011;40313;50.308;30.374;2023-03-03T08:45:19;15.50;;;13.60;;
54406;SDS011;40313;50.308;30.374;2023-03-03T08:47:46;63.20;;;15.55;;
54406;SDS011;40313;50.308;30.374;2023-03-03T08:50:13;24.80;;;13.60;;
54406;SDS011;40313;50.308;30.374;2023-03-03T08:52:41;27.65;;;14.75;;
54406;SDS011;40313;50.308;30.374;2023-03-03T08:55:08;23.92;;;13.10;;
54406;SDS011;40313;50.308;30.374;2023-03-03T08:57:35;13.82;;;12.18;;
54406;SDS011;40313;50.308;30.374;2023-03-03T09:00:03;12.65;;;11.32;;
54406;SDS011;40313;50.308;30.374;2023-03-03T09:02:30;18.05;;;11.77;;
54406;SDS011;40313;50.308;30.374;2023-03-03T09:04:57;13.93;;;12.18;;
54406;SDS011;40313;50.308;30.374;2023-03-03T09:07:23;12.98;;;11.85;;
54406;SDS011;40313;50.308;30.374;2023-03-03T09:09:51;26.27;;;12.90;;
54406;SDS011;40313;50.308;30.374;2023-03-03T09:45:06;19.00;;;12.90;;
54406;SDS011;40313;50.308;30.374;2023-03-03T10:13:30;12.95;;;11.60;;
54406;SDS011;40313;50.308;30.374;2023-03-03T10:34:11;15.50;;;10.40;;
54406;SDS011;40313;50.308;30.374;2023-03-03T11:10:41;8.60;;;5.60;;
54406;SDS011;40313;50.308;30.374;2023-03-03T11:15:46;8.80;;;6.80;;
54406;SDS011;40313;50.308;30.374;2023-03-03T11:46:29;6.90;;;6.40;;
54406;SDS011;40313;50.308;30.374;2023-03-03T11:49:04;9.20;;;6.60;;
54406;SDS011;40313;50.308;30.374;2023-03-03T11:51:39;18.90;;;6.60;;
54406;SDS011;40313;50.308;30.374;2023-03-03T12:17:00;4.20;;;3.80;;
54406;SDS011;40313;50.308;30.374;2023-03-03T12:32:21;4.50;;;4.10;;
54406;SDS011;40313;50.308;30.374;2023-03-03T12:37:35;4.30;;;3.90;;
54406;SDS011;40313;50.308;30.374;2023-03-03T12:55:32;11.40;;;7.60;;
54406;SDS011;40313;50.308;30.374;2023-03-03T12:58:07;12.10;;;10.90;;
54406;SDS011;40313;50.308;30.374;2023-03-03T13:13:33;32.55;;;17.27;;
54406;SDS011;40313;50.308;30.374;2023-03-03T13:16:07;23.10;;;16.70;;
54406;SDS011;40313;50.308;30.374;2023-03-03T13:18:40;19.33;;;14.98;;
54406;SDS011;40313;50.308;30.374;2023-03-03T13:21:19;23.55;;;17.55;;
54406;SDS011;40313;50.308;30.374;2023-03-03T13:23:50;27.55;;;17.58;;
54406;SDS011;40313;50.308;30.374;2023-03-03T13:26:24;33.40;;;18.17;;
54406;SDS011;40313;50.308;30.374;2023-03-03T13:28:57;20.10;;;16.65;;
54406;SDS011;40313;50.308;30.374;2023-03-03T13:31:28;28.83;;;19.83;;
54406;SDS011;40313;50.308;30.374;2023-03-03T13:33:59;33.58;;;19.90;;
54406;SDS011;40313;50.308;30.374;2023-03-03T13:36:29;28.50;;;17.50;;
54406;SDS011;40313;50.308;30.374;2023-03-03T13:44:02;27.45;;;19.25;;
54406;SDS011;40313;50.308;30.374;2023-03-03T13:46:33;34.60;;;16.83;;
54406;SDS011;40313;50.308;30.374;2023-03-03T13:49:15;19.70;;;15.48;;
54406;SDS011;40313;50.308;30.374;2023-03-03T13:51:54;20.25;;;15.77;;
54406;SDS011;40313;50.308;30.374;2023-03-03T13:54:37;29.30;;;16.35;;
54406;SDS011;40313;50.308;30.374;2023-03-03T13:57:19;30.63;;;17.92;;
54406;SDS011;40313;50.308;30.374;2023-03-03T13:59:56;26.70;;;16.40;;
54406;SDS011;40313;50.308;30.374;2023-03-03T14:28:20;20.40;;;14.40;;
54406;SDS011;40313;50.308;30.374;2023-03-03T14:30:48;22.30;;;12.65;;
54406;SDS011;40313;50.308;30.374;2023-03-03T14:33:20;17.50;;;12.20;;
54406;SDS011;40313;50.308;30.374;2023-03-03T14:35:59;13.95;;;11.90;;
54406;SDS011;40313;50.308;30.374;2023-03-03T14:41:05;18.00;;;11.40;;
54406;SDS011;40313;50.308;30.374;2023-03-03T14:43:39;19.35;;;11.05;;
54406;SDS011;40313;50.308;30.374;2023-03-03T14:46:21;20.50;;;11.50;;
54406;SDS011;40313;50.308;30.374;2023-03-03T14:48:58;13.90;;;11.10;;
54406;SDS011;40313;50.308;30.374;2023-03-03T14:53:56;13.85;;;10.60;;
54406;SDS011;40313;50.308;30.374;2023-03-03T14:56:24;16.45;;;10.40;;
54406;SDS011;40313;50.308;30.374;2023-03-03T14:58:53;22.40;;;11.70;;
54406;SDS011;40313;50.308;30.374;2023-03-03T15:04:02;20.50;;;13.50;;
54406;SDS011;40313;50.308;30.374;2023-03-03T15:06:34;13.35;;;10.75;;
54406;SDS011;40313;50.308;30.374;2023-03-03T15:09:24;15.30;;;10.70;;
54406;SDS011;40313;50.308;30.374;2023-03-03T15:11:57;21.60;;;10.00;;
54406;SDS011;40313;50.308;30.374;2023-03-03T15:14:27;11.37;;;9.27;;
54406;SDS011;40313;50.308;30.374;2023-03-03T15:16:56;11.90;;;10.75;;
54406;SDS011;40313;50.308;30.374;2023-03-03T15:19:39;16.00;;;11.55;;
54406;SDS011;40313;50.308;30.374;2023-03-03T15:22:17;14.85;;;11.90;;
54406;SDS011;40313;50.308;30.374;2023-03-03T15:24:53;16.00;;;11.55;;
54406;SDS011;40313;50.308;30.374;2023-03-03T15:27:27;12.30;;;11.00;;
54406;SDS011;40313;50.308;30.374;2023-03-03T15:32:28;12.40;;;10.07;;
54406;SDS011;40313;50.308;30.374;2023-03-03T15:35:03;20.35;;;11.70;;
54406;SDS011;40313;50.308;30.374;2023-03-03T15:37:42;18.80;;;12.60;;
54406;SDS011;40313;50.308;30.374;2023-03-03T15:40:16;18.50;;;14.07;;
54406;SDS011;40313;50.308;30.374;2023-03-03T15:53:13;11.90;;;9.70;;
54406;SDS011;40313;50.308;30.374;2023-03-03T16:26:41;14.65;;;11.60;;
54406;SDS011;40313;50.308;30.374;2023-03-03T16:29:21;14.00;;;9.40;;
54406;SDS011;40313;50.308;30.374;2023-03-03T16:32:00;15.20;;;9.80;;
54406;SDS011;40313;50.308;30.374;2023-03-03T16:39:34;16.70;;;10.85;;
54406;SDS011;40313;50.308;30.374;2023-03-03T16:42:18;15.68;;;10.68;;
54406;SDS011;40313;50.308;30.374;2023-03-03T16:44:54;14.05;;;11.95;;
54406;SDS011;40313;50.308;30.374;2023-03-03T16:47:34;15.70;;;11.40;;
54406;SDS011;40313;50.308;30.374;2023-03-03T16:50:14;16.70;;;9.88;;
54406;SDS011;40313;50.308;30.374;2023-03-03T16:52:48;13.77;;;10.50;;
54406;SDS011;40313;50.308;30.374;2023-03-03T16:55:24;21.42;;;12.90;;
54406;SDS011;40313;50.308;30.374;2023-03-03T16:57:58;21.58;;;12.95;;
54406;SDS011;40313;50.308;30.374;2023-03-03T17:00:35;24.70;;;12.60;;
54406;SDS011;40313;50.308;30.374;2023-03-03T17:03:12;21.65;;;13.10;;
54406;SDS011;40313;50.308;30.374;2023-03-03T17:05:49;31.02;;;16.58;;
54406;SDS011;40313;50.308;30.374;2023-03-03T17:08:32;33.03;;;15.32;;
54406;SDS011;40313;50.308;30.374;2023-03-03T17:11:14;21.33;;;14.20;;
54406;SDS011;40313;50.308;30.374;2023-03-03T17:16:53;25.02;;;14.57;;
54406;SDS011;40313;50.308;30.374;2023-03-03T17:19:34;18.33;;;13.90;;
54406;SDS011;40313;50.308;30.374;2023-03-03T17:22:12;25.60;;;14.10;;
54406;SDS011;40313;50.308;30.374;2023-03-03T17:24:46;25.33;;;13.35;;
54406;SDS011;40313;50.308;30.374;2023-03-03T17:27:22;18.85;;;14.13;;
54406;SDS011;40313;50.308;30.374;2023-03-03T17:29:59;23.65;;;15.30;;
54406;SDS011;40313;50.308;30.374;2023-03-03T17:32:36;25.65;;;15.63;;
54406;SDS011;40313;50.308;30.374;2023-03-03T17:35:26;37.22;;;18.05;;
54406;SDS011;40313;50.308;30.374;2023-03-03T17:38:04;27.45;;;19.10;;
54406;SDS011;40313;50.308;30.374;2023-03-03T17:40:41;33.20;;;20.73;;
54406;SDS011;40313;50.308;30.374;2023-03-03T17:43:14;34.50;;;19.98;;
54406;SDS011;40313;50.308;30.374;2023-03-03T17:45:45;38.97;;;20.38;;
54406;SDS011;40313;50.308;30.374;2023-03-03T17:48:22;29.40;;;20.40;;
54406;SDS011;40313;50.308;30.374;2023-03-03T17:53:54;39.30;;;21.00;;
54406;SDS011;40313;50.308;30.374;2023-03-03T17:56:35;34.65;;;20.83;;
54406;SDS011;40313;50.308;30.374;2023-03-03T17:59:22;40.78;;;21.73;;
54406;SDS011;40313;50.308;30.374;2023-03-03T18:02:04;42.38;;;21.58;;
54406;SDS011;40313;50.308;30.374;2023-03-03T18:04:51;40.42;;;22.30;;
54406;SDS011;40313;50.308;30.374;2023-03-03T18:07:45;29.73;;;20.00;;
54406;SDS011;40313;50.308;30.374;2023-03-03T18:16:28;43.78;;;22.13;;
54406;SDS011;40313;50.308;30.374;2023-03-03T18:19:13;46.22;;;23.60;;
54406;SDS011;40313;50.308;30.374;2023-03-03T18:22:00;46.70;;;23.77;;
54406;SDS011;40313;50.308;30.374;2023-03-03T18:24:33;39.25;;;20.65;;
54406;SDS011;40313;50.308;30.374;2023-03-03T18:27:26;38.17;;;22.20;;
54406;SDS011;40313;50.308;30.374;2023-03-03T18:36:05;40.33;;;22.83;;
54406;SDS011;40313;50.308;30.374;2023-03-03T18:38:39;40.80;;;24.13;;
54406;SDS011;40313;50.308;30.374;2023-03-03T18:41:08;43.42;;;23.17;;
54406;SDS011;40313;50.308;30.374;2023-03-03T18:43:40;42.25;;;22.65;;
54406;SDS011;40313;50.308;30.374;2023-03-03T18:49:11;47.40;;;27.17;;
54406;SDS011;40313;50.308;30.374;2023-03-03T18:51:47;47.03;;;24.33;;
54406;SDS011;40313;50.308;30.374;2023-03-03T18:54:21;41.05;;;24.75;;
54406;SDS011;40313;50.308;30.374;2023-03-03T18:57:09;49.03;;;25.42;;
54406;SDS011;40313;50.308;30.374;2023-03-03T18:59:38;53.83;;;26.15;;
54406;SDS011;40313;50.308;30.374;2023-03-03T19:02:08;48.50;;;25.33;;
54406;SDS011;40313;50.308;30.374;2023-03-03T19:04:44;51.15;;;27.20;;
54406;SDS011;40313;50.308;30.374;2023-03-03T19:07:18;57.63;;;31.35;;
54406;SDS011;40313;50.308;30.374;2023-03-03T19:09:58;55.00;;;27.17;;
54406;SDS011;40313;50.308;30.374;2023-03-03T19:12:46;48.30;;;27.70;;
54406;SDS011;40313;50.308;30.374;2023-03-03T19:18:21;47.50;;;25.52;;
54406;SDS011;40313;50.308;30.374;2023-03-03T19:20:52;40.92;;;25.05;;
54406;SDS011;40313;50.308;30.374;2023-03-03T19:23:21;54.92;;;27.70;;
54406;SDS011;40313;50.308;30.374;2023-03-03T19:28:56;45.60;;;25.13;;
54406;SDS011;40313;50.308;30.374;2023-03-03T19:31:32;45.92;;;25.38;;
54406;SDS011;40313;50.308;30.374;2023-03-03T19:34:05;46.00;;;23.42;;
54406;SDS011;40313;50.308;30.374;2023-03-03T19:36:42;64.82;;;28.80;;
54406;SDS011;40313;50.308;30.374;2023-03-03T19:39:22;51.53;;;26.42;;
54406;SDS011;40313;50.308;30.374;2023-03-03T19:42:04;48.50;;;27.33;;
54406;SDS011;40313;50.308;30.374;2023-03-03T19:44:43;51.58;;;23.88;;
54406;SDS011;40313;50.308;30.374;2023-03-03T19:47:24;41.78;;;24.90;;
54406;SDS011;40313;50.308;30.374;2023-03-03T19:50:02;59.75;;;26.85;;
54406;SDS011;40313;50.308;30.374;2023-03-03T19:52:43;49.90;;;25.65;;
54406;SDS011;40313;50.308;30.374;2023-03-03T19:55:21;52.67;;;25.85;;
54406;SDS011;40313;50.308;30.374;2023-03-03T19:57:56;52.00;;;29.23;;
54406;SDS011;40313;50.308;30.374;2023-03-03T20:00:31;47.22;;;25.85;;
54406;SDS011;40313;50.308;30.374;2023-03-03T20:03:22;50.50;;;25.50;;
54406;SDS011;40313;50.308;30.374;2023-03-03T20:06:00;53.80;;;26.83;;
54406;SDS011;40313;50.308;30.374;2023-03-03T20:08:38;43.42;;;25.83;;
54406;SDS011;40313;50.308;30.374;2023-03-03T20:11:09;57.58;;;28.23;;
54406;SDS011;40313;50.308;30.374;2023-03-03T20:13:46;54.80;;;25.55;;
54406;SDS011;40313;50.308;30.374;2023-03-03T20:16:22;52.00;;;27.48;;
54406;SDS011;40313;50.308;30.374;2023-03-03T20:19:01;42.33;;;24.40;;
54406;SDS011;40313;50.308;30.374;2023-03-03T20:21:42;52.60;;;25.83;;
54406;SDS011;40313;50.308;30.374;2023-03-03T20:27:07;44.92;;;25.17;;
54406;SDS011;40313;50.308;30.374;2023-03-03T20:29:46;57.97;;;27.08;;
54406;SDS011;40313;50.308;30.374;2023-03-03T20:32:35;36.00;;;21.40;;
54406;SDS011;40313;50.308;30.374;2023-03-03T20:35:15;41.60;;;24.83;;
54406;SDS011;40313;50.308;30.374;2023-03-03T20:37:52;44.70;;;27.42;;
54406;SDS011;40313;50.308;30.374;2023-03-03T20:40:27;43.83;;;25.90;;
54406;SDS011;40313;50.308;30.374;2023-03-03T20:43:02;51.55;;;26.08;;
54406;SDS011;40313;50.308;30.374;2023-03-03T20:45:48;55.67;;;26.45;;
54406;SDS011;40313;50.308;30.374;2023-03-03T20:48:34;54.22;;;26.35;;
54406;SDS011;40313;50.308;30.374;2023-03-03T20:51:12;50.53;;;24.60;;
54406;SDS011;40313;50.308;30.374;2023-03-03T20:53:52;49.25;;;24.67;;
54406;SDS011;40313;50.308;30.374;2023-03-03T20:56:26;50.85;;;27.17;;
54406;SDS011;40313;50.308;30.374;2023-03-03T20:59:00;51.00;;;25.50;;
54406;SDS011;40313;50.308;30.374;2023-03-03T21:01:39;58.00;;;29.10;;